Frenchton, West Virginia
Current Conditions -  °F | °C
As of 11:35 PM on Saturday 25 Oct 2014 (Local Time) from KW22 Reporting Station
Scattered Clouds Scattered Clouds  
Wind Chill: 57°   Ceiling: Unl
Heat Index: 57°   Visibility: 10mi
Dew Point: 52°   Wind: 9mph
Humidity: 82%   Direction: 230°SW
Pressure: 29.86"   Gusts: NA
Location:  38.87°N, 80.36°W
Report Text: KW22 260335Z AUTO 23008KT 10SM FEW021 FEW030 SCT037 14/11 A2986 RMK AO2
Loading
Personal Weather Stations






























Interactive Weather Map
Tropical Storm Tracking
New forecast layout! Learn more

10-Day Weather Forecast

Advertisements
Track Severe Weather on mobile